sensor_id;sensor_type;location;lat;lon;timestamp;P1;durP1;ratioP1;P2;durP2;ratioP2
17631;SDS011;8934;51.194;17.150;2024-02-04T00:00:03;2.17;;;1.25;;
17631;SDS011;8934;51.194;17.150;2024-02-04T00:02:56;5.25;;;1.13;;
17631;SDS011;8934;51.194;17.150;2024-02-04T00:05:44;1.02;;;0.73;;
17631;SDS011;8934;51.194;17.150;2024-02-04T00:08:31;0.60;;;0.57;;
17631;SDS011;8934;51.194;17.150;2024-02-04T00:11:20;1.52;;;0.70;;
17631;SDS011;8934;51.194;17.150;2024-02-04T00:14:07;1.20;;;0.60;;
17631;SDS011;8934;51.194;17.150;2024-02-04T00:16:54;0.95;;;0.57;;
17631;SDS011;8934;51.194;17.150;2024-02-04T00:19:42;1.13;;;0.40;;
17631;SDS011;8934;51.194;17.150;2024-02-04T00:22:30;0.55;;;0.40;;
17631;SDS011;8934;51.194;17.150;2024-02-04T00:25:17;0.52;;;0.30;;
17631;SDS011;8934;51.194;17.150;2024-02-04T00:28:07;0.65;;;0.47;;
17631;SDS011;8934;51.194;17.150;2024-02-04T00:30:57;0.10;;;0.10;;
17631;SDS011;8934;51.194;17.150;2024-02-04T00:33:45;1.27;;;0.80;;
17631;SDS011;8934;51.194;17.150;2024-02-04T00:36:33;2.05;;;0.57;;
17631;SDS011;8934;51.194;17.150;2024-02-04T00:39:20;0.10;;;0.10;;
17631;SDS011;8934;51.194;17.150;2024-02-04T00:42:08;0.93;;;0.47;;
17631;SDS011;8934;51.194;17.150;2024-02-04T00:44:57;0.57;;;0.40;;
17631;SDS011;8934;51.194;17.150;2024-02-04T00:47:45;1.13;;;0.35;;
17631;SDS011;8934;51.194;17.150;2024-02-04T00:50:32;1.42;;;0.50;;
17631;SDS011;8934;51.194;17.150;2024-02-04T00:53:19;0.32;;;0.32;;
17631;SDS011;8934;51.194;17.150;2024-02-04T00:56:07;1.00;;;0.30;;
17631;SDS011;8934;51.194;17.150;2024-02-04T00:58:55;0.20;;;0.20;;
17631;SDS011;8934;51.194;17.150;2024-02-04T01:01:43;0.88;;;0.30;;
17631;SDS011;8934;51.194;17.150;2024-02-04T01:04:31;0.52;;;0.32;;
17631;SDS011;8934;51.194;17.150;2024-02-04T01:07:18;1.85;;;0.38;;
17631;SDS011;8934;51.194;17.150;2024-02-04T01:10:05;3.00;;;0.57;;
17631;SDS011;8934;51.194;17.150;2024-02-04T01:12:55;3.53;;;0.65;;
17631;SDS011;8934;51.194;17.150;2024-02-04T01:15:42;1.70;;;0.43;;
17631;SDS011;8934;51.194;17.150;2024-02-04T01:18:31;5.25;;;0.70;;
17631;SDS011;8934;51.194;17.150;2024-02-04T01:21:19;0.98;;;0.60;;
17631;SDS011;8934;51.194;17.150;2024-02-04T01:24:06;1.45;;;0.50;;
17631;SDS011;8934;51.194;17.150;2024-02-04T01:26:53;2.63;;;0.52;;
17631;SDS011;8934;51.194;17.150;2024-02-04T01:29:41;1.77;;;0.98;;
17631;SDS011;8934;51.194;17.150;2024-02-04T01:32:28;0.30;;;0.30;;
17631;SDS011;8934;51.194;17.150;2024-02-04T01:35:17;3.97;;;0.70;;
17631;SDS011;8934;51.194;17.150;2024-02-04T01:38:05;0.45;;;0.45;;
17631;SDS011;8934;51.194;17.150;2024-02-04T01:40:52;2.28;;;0.50;;
17631;SDS011;8934;51.194;17.150;2024-02-04T01:43:40;2.92;;;0.73;;
17631;SDS011;8934;51.194;17.150;2024-02-04T01:46:27;2.88;;;0.80;;
17631;SDS011;8934;51.194;17.150;2024-02-04T01:49:15;2.25;;;0.55;;
17631;SDS011;8934;51.194;17.150;2024-02-04T01:52:04;2.72;;;0.73;;
17631;SDS011;8934;51.194;17.150;2024-02-04T01:54:53;4.55;;;0.73;;
17631;SDS011;8934;51.194;17.150;2024-02-04T01:57:41;1.90;;;1.10;;
17631;SDS011;8934;51.194;17.150;2024-02-04T02:00:29;1.33;;;0.80;;
17631;SDS011;8934;51.194;17.150;2024-02-04T02:03:16;1.30;;;0.95;;
17631;SDS011;8934;51.194;17.150;2024-02-04T02:06:04;3.33;;;0.90;;
17631;SDS011;8934;51.194;17.150;2024-02-04T02:08:53;2.42;;;1.35;;
17631;SDS011;8934;51.194;17.150;2024-02-04T02:11:46;2.45;;;1.38;;
17631;SDS011;8934;51.194;17.150;2024-02-04T02:14:43;3.38;;;1.20;;
17631;SDS011;8934;51.194;17.150;2024-02-04T02:17:36;1.63;;;1.17;;
17631;SDS011;8934;51.194;17.150;2024-02-04T02:20:36;2.25;;;1.27;;
17631;SDS011;8934;51.194;17.150;2024-02-04T02:23:34;3.75;;;1.33;;
17631;SDS011;8934;51.194;17.150;2024-02-04T02:26:24;4.18;;;1.30;;
17631;SDS011;8934;51.194;17.150;2024-02-04T02:29:13;1.50;;;0.88;;
17631;SDS011;8934;51.194;17.150;2024-02-04T02:32:00;3.45;;;1.42;;
17631;SDS011;8934;51.194;17.150;2024-02-04T02:34:48;2.22;;;1.92;;
17631;SDS011;8934;51.194;17.150;2024-02-04T02:37:39;3.97;;;1.33;;
17631;SDS011;8934;51.194;17.150;2024-02-04T02:40:30;2.05;;;1.20;;
17631;SDS011;8934;51.194;17.150;2024-02-04T02:43:26;3.72;;;1.33;;
17631;SDS011;8934;51.194;17.150;2024-02-04T02:46:15;1.98;;;1.25;;
17631;SDS011;8934;51.194;17.150;2024-02-04T02:49:03;1.80;;;1.20;;
17631;SDS011;8934;51.194;17.150;2024-02-04T02:51:51;3.53;;;1.30;;
17631;SDS011;8934;51.194;17.150;2024-02-04T02:54:38;2.05;;;1.25;;
17631;SDS011;8934;51.194;17.150;2024-02-04T02:57:26;5.03;;;1.90;;
17631;SDS011;8934;51.194;17.150;2024-02-04T03:00:15;3.75;;;1.23;;
17631;SDS011;8934;51.194;17.150;2024-02-04T03:03:03;2.95;;;1.27;;
17631;SDS011;8934;51.194;17.150;2024-02-04T03:05:50;4.15;;;1.88;;
17631;SDS011;8934;51.194;17.150;2024-02-04T03:08:38;3.08;;;1.52;;
17631;SDS011;8934;51.194;17.150;2024-02-04T03:11:25;3.20;;;1.33;;
17631;SDS011;8934;51.194;17.150;2024-02-04T03:14:13;1.00;;;0.90;;
17631;SDS011;8934;51.194;17.150;2024-02-04T03:17:04;2.58;;;1.35;;
17631;SDS011;8934;51.194;17.150;2024-02-04T03:19:52;2.22;;;1.20;;
17631;SDS011;8934;51.194;17.150;2024-02-04T03:22:40;0.77;;;0.75;;
17631;SDS011;8934;51.194;17.150;2024-02-04T03:25:28;1.85;;;1.23;;
17631;SDS011;8934;51.194;17.150;2024-02-04T03:28:15;1.38;;;0.60;;
17631;SDS011;8934;51.194;17.150;2024-02-04T03:31:04;2.90;;;0.88;;
17631;SDS011;8934;51.194;17.150;2024-02-04T03:33:53;4.38;;;0.98;;
17631;SDS011;8934;51.194;17.150;2024-02-04T03:36:41;5.28;;;1.45;;
17631;SDS011;8934;51.194;17.150;2024-02-04T03:39:28;3.33;;;1.10;;
17631;SDS011;8934;51.194;17.150;2024-02-04T03:42:16;3.90;;;0.50;;
17631;SDS011;8934;51.194;17.150;2024-02-04T03:45:04;1.33;;;0.60;;
17631;SDS011;8934;51.194;17.150;2024-02-04T03:47:52;1.52;;;0.65;;
17631;SDS011;8934;51.194;17.150;2024-02-04T03:50:41;3.08;;;0.50;;
17631;SDS011;8934;51.194;17.150;2024-02-04T03:53:28;2.40;;;0.77;;
17631;SDS011;8934;51.194;17.150;2024-02-04T03:56:15;3.75;;;0.80;;
17631;SDS011;8934;51.194;17.150;2024-02-04T03:59:03;0.98;;;0.80;;
17631;SDS011;8934;51.194;17.150;2024-02-04T04:01:52;0.98;;;0.50;;
17631;SDS011;8934;51.194;17.150;2024-02-04T04:04:40;2.53;;;0.50;;
17631;SDS011;8934;51.194;17.150;2024-02-04T04:07:30;1.45;;;0.52;;
17631;SDS011;8934;51.194;17.150;2024-02-04T04:10:17;0.93;;;0.30;;
17631;SDS011;8934;51.194;17.150;2024-02-04T04:13:05;3.80;;;0.68;;
17631;SDS011;8934;51.194;17.150;2024-02-04T04:15:53;0.30;;;0.30;;
17631;SDS011;8934;51.194;17.150;2024-02-04T04:18:40;3.40;;;1.00;;
17631;SDS011;8934;51.194;17.150;2024-02-04T04:21:28;0.30;;;0.30;;
17631;SDS011;8934;51.194;17.150;2024-02-04T04:24:17;1.25;;;0.70;;
17631;SDS011;8934;51.194;17.150;2024-02-04T04:27:05;0.50;;;0.50;;
17631;SDS011;8934;51.194;17.150;2024-02-04T04:29:53;2.08;;;0.52;;
17631;SDS011;8934;51.194;17.150;2024-02-04T04:32:40;2.25;;;0.65;;
17631;SDS011;8934;51.194;17.150;2024-02-04T04:35:27;5.38;;;0.65;;
17631;SDS011;8934;51.194;17.150;2024-02-04T04:38:15;4.35;;;0.68;;
17631;SDS011;8934;51.194;17.150;2024-02-04T04:41:04;1.75;;;0.65;;
17631;SDS011;8934;51.194;17.150;2024-02-04T04:43:53;4.10;;;1.42;;
17631;SDS011;8934;51.194;17.150;2024-02-04T04:46:41;1.77;;;0.47;;
17631;SDS011;8934;51.194;17.150;2024-02-04T04:49:28;1.48;;;0.70;;
17631;SDS011;8934;51.194;17.150;2024-02-04T04:52:16;8.00;;;0.98;;
17631;SDS011;8934;51.194;17.150;2024-02-04T04:55:03;3.25;;;0.90;;
17631;SDS011;8934;51.194;17.150;2024-02-04T04:57:52;1.63;;;0.80;;
17631;SDS011;8934;51.194;17.150;2024-02-04T05:00:40;4.82;;;0.70;;
17631;SDS011;8934;51.194;17.150;2024-02-04T05:03:27;3.83;;;0.75;;
17631;SDS011;8934;51.194;17.150;2024-02-04T05:06:15;3.95;;;0.75;;
17631;SDS011;8934;51.194;17.150;2024-02-04T05:09:02;2.75;;;0.50;;
17631;SDS011;8934;51.194;17.150;2024-02-04T05:11:49;4.45;;;0.63;;
17631;SDS011;8934;51.194;17.150;2024-02-04T05:14:38;0.60;;;0.40;;
17631;SDS011;8934;51.194;17.150;2024-02-04T05:17:26;1.02;;;0.43;;
17631;SDS011;8934;51.194;17.150;2024-02-04T05:20:13;0.77;;;0.50;;
17631;SDS011;8934;51.194;17.150;2024-02-04T05:23:00;2.15;;;0.50;;
17631;SDS011;8934;51.194;17.150;2024-02-04T05:25:48;5.60;;;0.95;;
17631;SDS011;8934;51.194;17.150;2024-02-04T05:28:35;0.45;;;0.38;;
17631;SDS011;8934;51.194;17.150;2024-02-04T05:31:24;5.78;;;0.82;;
17631;SDS011;8934;51.194;17.150;2024-02-04T05:34:11;5.80;;;0.98;;
17631;SDS011;8934;51.194;17.150;2024-02-04T05:36:59;2.72;;;0.60;;
17631;SDS011;8934;51.194;17.150;2024-02-04T05:39:47;4.82;;;0.45;;
17631;SDS011;8934;51.194;17.150;2024-02-04T05:42:34;1.83;;;0.60;;
17631;SDS011;8934;51.194;17.150;2024-02-04T05:45:22;1.42;;;0.77;;
17631;SDS011;8934;51.194;17.150;2024-02-04T05:48:11;0.60;;;0.38;;
17631;SDS011;8934;51.194;17.150;2024-02-04T05:50:59;1.90;;;0.60;;
17631;SDS011;8934;51.194;17.150;2024-02-04T05:53:46;2.17;;;0.82;;
17631;SDS011;8934;51.194;17.150;2024-02-04T05:56:33;1.48;;;0.75;;
17631;SDS011;8934;51.194;17.150;2024-02-04T05:59:21;2.92;;;1.00;;
17631;SDS011;8934;51.194;17.150;2024-02-04T06:02:08;7.85;;;1.02;;
17631;SDS011;8934;51.194;17.150;2024-02-04T06:04:57;5.65;;;0.90;;
17631;SDS011;8934;51.194;17.150;2024-02-04T06:07:44;1.92;;;0.90;;
17631;SDS011;8934;51.194;17.150;2024-02-04T06:10:31;1.90;;;0.73;;
17631;SDS011;8934;51.194;17.150;2024-02-04T06:13:18;1.42;;;0.88;;
17631;SDS011;8934;51.194;17.150;2024-02-04T06:16:06;1.88;;;0.73;;
17631;SDS011;8934;51.194;17.150;2024-02-04T06:18:54;1.92;;;0.90;;
17631;SDS011;8934;51.194;17.150;2024-02-04T06:21:45;7.43;;;0.90;;
17631;SDS011;8934;51.194;17.150;2024-02-04T06:24:32;4.20;;;0.57;;
17631;SDS011;8934;51.194;17.150;2024-02-04T06:27:19;6.25;;;0.63;;
17631;SDS011;8934;51.194;17.150;2024-02-04T06:30:07;2.85;;;0.40;;
17631;SDS011;8934;51.194;17.150;2024-02-04T06:32:56;2.78;;;1.23;;
17631;SDS011;8934;51.194;17.150;2024-02-04T06:35:44;4.00;;;1.38;;
17631;SDS011;8934;51.194;17.150;2024-02-04T06:38:33;2.85;;;1.10;;
17631;SDS011;8934;51.194;17.150;2024-02-04T06:41:20;7.95;;;1.95;;
17631;SDS011;8934;51.194;17.150;2024-02-04T06:44:07;2.58;;;1.25;;
17631;SDS011;8934;51.194;17.150;2024-02-04T06:46:55;2.58;;;1.33;;
17631;SDS011;8934;51.194;17.150;2024-02-04T06:49:43;8.23;;;1.77;;
17631;SDS011;8934;51.194;17.150;2024-02-04T06:52:31;3.83;;;1.27;;
17631;SDS011;8934;51.194;17.150;2024-02-04T06:55:19;5.43;;;1.33;;
17631;SDS011;8934;51.194;17.150;2024-02-04T06:58:07;4.88;;;1.83;;
17631;SDS011;8934;51.194;17.150;2024-02-04T07:00:54;3.85;;;1.10;;
17631;SDS011;8934;51.194;17.150;2024-02-04T07:03:42;2.05;;;0.80;;
17631;SDS011;8934;51.194;17.150;2024-02-04T07:06:29;3.58;;;1.63;;
17631;SDS011;8934;51.194;17.150;2024-02-04T07:09:17;4.07;;;0.85;;
17631;SDS011;8934;51.194;17.150;2024-02-04T07:12:06;2.97;;;0.95;;
17631;SDS011;8934;51.194;17.150;2024-02-04T07:14:53;3.17;;;1.48;;
17631;SDS011;8934;51.194;17.150;2024-02-04T07:17:41;3.38;;;1.75;;
17631;SDS011;8934;51.194;17.150;2024-02-04T07:20:29;2.85;;;1.02;;
17631;SDS011;8934;51.194;17.150;2024-02-04T07:23:16;6.25;;;2.35;;
17631;SDS011;8934;51.194;17.150;2024-02-04T07:26:04;1.35;;;0.70;;
17631;SDS011;8934;51.194;17.150;2024-02-04T07:28:52;2.22;;;0.70;;
17631;SDS011;8934;51.194;17.150;2024-02-04T07:31:40;1.00;;;0.32;;
17631;SDS011;8934;51.194;17.150;2024-02-04T07:34:28;1.80;;;0.60;;
17631;SDS011;8934;51.194;17.150;2024-02-04T07:37:16;1.55;;;0.70;;
17631;SDS011;8934;51.194;17.150;2024-02-04T07:40:04;3.55;;;0.70;;
17631;SDS011;8934;51.194;17.150;2024-02-04T07:42:53;3.47;;;1.02;;
17631;SDS011;8934;51.194;17.150;2024-02-04T07:45:41;2.70;;;1.30;;
17631;SDS011;8934;51.194;17.150;2024-02-04T07:48:29;6.18;;;1.42;;
17631;SDS011;8934;51.194;17.150;2024-02-04T07:51:16;4.47;;;1.35;;
17631;SDS011;8934;51.194;17.150;2024-02-04T07:54:04;6.53;;;0.93;;
17631;SDS011;8934;51.194;17.150;2024-02-04T07:56:51;9.57;;;1.48;;
17631;SDS011;8934;51.194;17.150;2024-02-04T07:59:38;3.28;;;0.70;;
17631;SDS011;8934;51.194;17.150;2024-02-04T08:02:27;1.20;;;0.60;;
17631;SDS011;8934;51.194;17.150;2024-02-04T08:05:15;2.95;;;0.80;;
17631;SDS011;8934;51.194;17.150;2024-02-04T08:08:02;6.15;;;1.67;;
17631;SDS011;8934;51.194;17.150;2024-02-04T08:10:49;3.45;;;0.82;;
17631;SDS011;8934;51.194;17.150;2024-02-04T08:13:37;2.63;;;0.60;;
17631;SDS011;8934;51.194;17.150;2024-02-04T08:16:24;4.45;;;0.88;;
17631;SDS011;8934;51.194;17.150;2024-02-04T08:19:12;3.47;;;1.25;;
17631;SDS011;8934;51.194;17.150;2024-02-04T08:22:00;0.93;;;0.55;;
17631;SDS011;8934;51.194;17.150;2024-02-04T08:24:48;3.17;;;0.65;;
17631;SDS011;8934;51.194;17.150;2024-02-04T08:27:36;1.27;;;0.40;;
17631;SDS011;8934;51.194;17.150;2024-02-04T08:30:23;4.72;;;0.70;;
17631;SDS011;8934;51.194;17.150;2024-02-04T08:33:11;1.58;;;0.65;;
17631;SDS011;8934;51.194;17.150;2024-02-04T08:35:59;2.25;;;0.98;;
17631;SDS011;8934;51.194;17.150;2024-02-04T08:38:47;6.07;;;1.15;;
17631;SDS011;8934;51.194;17.150;2024-02-04T08:41:34;2.83;;;0.95;;
17631;SDS011;8934;51.194;17.150;2024-02-04T08:44:21;1.50;;;0.65;;
17631;SDS011;8934;51.194;17.150;2024-02-04T08:47:23;5.78;;;0.82;;
17631;SDS011;8934;51.194;17.150;2024-02-04T08:50:11;2.03;;;0.40;;
17631;SDS011;8934;51.194;17.150;2024-02-04T08:53:01;3.97;;;0.63;;
17631;SDS011;8934;51.194;17.150;2024-02-04T08:55:49;4.93;;;1.50;;
17631;SDS011;8934;51.194;17.150;2024-02-04T08:58:38;5.28;;;0.52;;
17631;SDS011;8934;51.194;17.150;2024-02-04T09:01:25;1.58;;;0.70;;
17631;SDS011;8934;51.194;17.150;2024-02-04T09:04:13;1.48;;;0.40;;
17631;SDS011;8934;51.194;17.150;2024-02-04T09:07:01;1.98;;;0.45;;
17631;SDS011;8934;51.194;17.150;2024-02-04T09:09:49;1.73;;;0.70;;
17631;SDS011;8934;51.194;17.150;2024-02-04T09:12:36;3.65;;;0.60;;
17631;SDS011;8934;51.194;17.150;2024-02-04T09:15:24;2.83;;;0.52;;
17631;SDS011;8934;51.194;17.150;2024-02-04T09:18:11;3.00;;;0.73;;
17631;SDS011;8934;51.194;17.150;2024-02-04T09:20:58;6.03;;;0.98;;
17631;SDS011;8934;51.194;17.150;2024-02-04T09:23:46;5.55;;;0.95;;
17631;SDS011;8934;51.194;17.150;2024-02-04T09:26:36;4.13;;;0.57;;
17631;SDS011;8934;51.194;17.150;2024-02-04T09:29:23;5.40;;;0.93;;
17631;SDS011;8934;51.194;17.150;2024-02-04T09:32:10;2.30;;;1.00;;
17631;SDS011;8934;51.194;17.150;2024-02-04T09:35:02;4.30;;;0.77;;
17631;SDS011;8934;51.194;17.150;2024-02-04T09:37:50;2.38;;;0.60;;
17631;SDS011;8934;51.194;17.150;2024-02-04T09:40:37;0.68;;;0.40;;
17631;SDS011;8934;51.194;17.150;2024-02-04T09:43:26;4.72;;;0.77;;
17631;SDS011;8934;51.194;17.150;2024-02-04T09:46:13;6.28;;;0.55;;
17631;SDS011;8934;51.194;17.150;2024-02-04T09:49:01;2.90;;;0.65;;
17631;SDS011;8934;51.194;17.150;2024-02-04T09:51:51;1.40;;;0.55;;
17631;SDS011;8934;51.194;17.150;2024-02-04T09:54:39;4.07;;;0.50;;
17631;SDS011;8934;51.194;17.150;2024-02-04T09:57:30;2.92;;;0.20;;
17631;SDS011;8934;51.194;17.150;2024-02-04T10:00:20;3.40;;;0.70;;
17631;SDS011;8934;51.194;17.150;2024-02-04T10:03:08;1.75;;;0.73;;
17631;SDS011;8934;51.194;17.150;2024-02-04T10:05:55;4.28;;;0.68;;
17631;SDS011;8934;51.194;17.150;2024-02-04T10:08:43;3.70;;;0.52;;
17631;SDS011;8934;51.194;17.150;2024-02-04T10:11:32;1.33;;;0.65;;
17631;SDS011;8934;51.194;17.150;2024-02-04T10:14:19;6.93;;;0.98;;
17631;SDS011;8934;51.194;17.150;2024-02-04T10:17:08;1.55;;;0.70;;
17631;SDS011;8934;51.194;17.150;2024-02-04T10:19:56;0.93;;;0.43;;
17631;SDS011;8934;51.194;17.150;2024-02-04T10:22:43;1.25;;;0.80;;
17631;SDS011;8934;51.194;17.150;2024-02-04T10:25:31;7.57;;;1.45;;
17631;SDS011;8934;51.194;17.150;2024-02-04T10:28:18;4.47;;;0.68;;
17631;SDS011;8934;51.194;17.150;2024-02-04T10:31:08;6.40;;;0.82;;
17631;SDS011;8934;51.194;17.150;2024-02-04T10:33:57;0.82;;;0.52;;
17631;SDS011;8934;51.194;17.150;2024-02-04T10:36:46;3.33;;;0.88;;
17631;SDS011;8934;51.194;17.150;2024-02-04T10:39:33;1.38;;;0.45;;
17631;SDS011;8934;51.194;17.150;2024-02-04T10:42:21;2.15;;;0.47;;
17631;SDS011;8934;51.194;17.150;2024-02-04T10:45:11;2.38;;;0.70;;
17631;SDS011;8934;51.194;17.150;2024-02-04T10:48:02;2.70;;;0.80;;
17631;SDS011;8934;51.194;17.150;2024-02-04T10:50:52;2.25;;;1.20;;
17631;SDS011;8934;51.194;17.150;2024-02-04T10:53:45;2.03;;;0.70;;
17631;SDS011;8934;51.194;17.150;2024-02-04T10:56:37;3.10;;;0.63;;
17631;SDS011;8934;51.194;17.150;2024-02-04T10:59:28;4.90;;;0.93;;
17631;SDS011;8934;51.194;17.150;2024-02-04T11:02:18;1.35;;;0.63;;
17631;SDS011;8934;51.194;17.150;2024-02-04T11:05:07;5.28;;;0.95;;
17631;SDS011;8934;51.194;17.150;2024-02-04T11:07:57;5.88;;;1.20;;
17631;SDS011;8934;51.194;17.150;2024-02-04T11:10:45;4.70;;;0.80;;
17631;SDS011;8934;51.194;17.150;2024-02-04T11:13:33;1.05;;;0.75;;
17631;SDS011;8934;51.194;17.150;2024-02-04T11:16:29;3.28;;;1.25;;
17631;SDS011;8934;51.194;17.150;2024-02-04T11:19:32;5.82;;;1.13;;
17631;SDS011;8934;51.194;17.150;2024-02-04T11:22:40;5.63;;;1.50;;
17631;SDS011;8934;51.194;17.150;2024-02-04T11:25:49;1.90;;;0.80;;
17631;SDS011;8934;51.194;17.150;2024-02-04T11:28:43;3.10;;;1.00;;
17631;SDS011;8934;51.194;17.150;2024-02-04T11:31:31;1.95;;;1.05;;
17631;SDS011;8934;51.194;17.150;2024-02-04T11:34:18;2.53;;;1.00;;
17631;SDS011;8934;51.194;17.150;2024-02-04T11:37:13;3.55;;;1.27;;
17631;SDS011;8934;51.194;17.150;2024-02-04T11:40:04;3.08;;;1.40;;
17631;SDS011;8934;51.194;17.150;2024-02-04T11:42:55;2.75;;;1.73;;
17631;SDS011;8934;51.194;17.150;2024-02-04T11:45:51;2.50;;;1.60;;
17631;SDS011;8934;51.194;17.150;2024-02-04T11:48:40;3.55;;;1.90;;
17631;SDS011;8934;51.194;17.150;2024-02-04T11:51:28;4.22;;;2.28;;
17631;SDS011;8934;51.194;17.150;2024-02-04T11:54:16;3.00;;;1.70;;
17631;SDS011;8934;51.194;17.150;2024-02-04T11:57:07;2.85;;;2.05;;
17631;SDS011;8934;51.194;17.150;2024-02-04T11:59:56;4.32;;;3.00;;
17631;SDS011;8934;51.194;17.150;2024-02-04T12:02:43;2.53;;;2.15;;
17631;SDS011;8934;51.194;17.150;2024-02-04T12:05:32;3.38;;;2.30;;
17631;SDS011;8934;51.194;17.150;2024-02-04T12:08:20;5.40;;;2.38;;
17631;SDS011;8934;51.194;17.150;2024-02-04T12:11:09;3.85;;;2.30;;
17631;SDS011;8934;51.194;17.150;2024-02-04T12:13:58;7.32;;;2.10;;
17631;SDS011;8934;51.194;17.150;2024-02-04T12:16:48;4.40;;;2.53;;
17631;SDS011;8934;51.194;17.150;2024-02-04T12:19:35;2.95;;;2.28;;
17631;SDS011;8934;51.194;17.150;2024-02-04T12:22:28;5.85;;;2.42;;
17631;SDS011;8934;51.194;17.150;2024-02-04T12:25:15;3.28;;;2.42;;
17631;SDS011;8934;51.194;17.150;2024-02-04T12:28:04;3.80;;;2.38;;
17631;SDS011;8934;51.194;17.150;2024-02-04T12:30:53;2.88;;;2.22;;
17631;SDS011;8934;51.194;17.150;2024-02-04T12:33:41;3.75;;;2.17;;
17631;SDS011;8934;51.194;17.150;2024-02-04T12:36:29;7.35;;;4.15;;
17631;SDS011;8934;51.194;17.150;2024-02-04T12:39:18;3.95;;;2.55;;
17631;SDS011;8934;51.194;17.150;2024-02-04T12:42:05;2.88;;;1.75;;
17631;SDS011;8934;51.194;17.150;2024-02-04T12:44:56;4.15;;;2.22;;
17631;SDS011;8934;51.194;17.150;2024-02-04T12:47:44;3.50;;;2.00;;
17631;SDS011;8934;51.194;17.150;2024-02-04T12:50:36;2.25;;;1.85;;
17631;SDS011;8934;51.194;17.150;2024-02-04T12:53:24;4.70;;;1.83;;
17631;SDS011;8934;51.194;17.150;2024-02-04T12:56:11;5.13;;;2.42;;
17631;SDS011;8934;51.194;17.150;2024-02-04T12:58:58;3.53;;;1.67;;
17631;SDS011;8934;51.194;17.150;2024-02-04T13:01:46;2.10;;;1.40;;
17631;SDS011;8934;51.194;17.150;2024-02-04T13:04:40;1.80;;;1.45;;
17631;SDS011;8934;51.194;17.150;2024-02-04T13:07:29;3.50;;;1.58;;
17631;SDS011;8934;51.194;17.150;2024-02-04T13:10:17;2.70;;;1.27;;
17631;SDS011;8934;51.194;17.150;2024-02-04T13:13:05;1.73;;;1.50;;
17631;SDS011;8934;51.194;17.150;2024-02-04T13:15:55;1.05;;;0.90;;
17631;SDS011;8934;51.194;17.150;2024-02-04T13:18:42;2.38;;;1.50;;
17631;SDS011;8934;51.194;17.150;2024-02-04T13:21:31;2.45;;;1.50;;
17631;SDS011;8934;51.194;17.150;2024-02-04T13:24:18;2.65;;;2.20;;
17631;SDS011;8934;51.194;17.150;2024-02-04T13:27:06;6.95;;;3.83;;
17631;SDS011;8934;51.194;17.150;2024-02-04T13:29:54;3.10;;;1.40;;
17631;SDS011;8934;51.194;17.150;2024-02-04T13:32:41;1.83;;;1.38;;
17631;SDS011;8934;51.194;17.150;2024-02-04T13:35:29;2.83;;;1.23;;
17631;SDS011;8934;51.194;17.150;2024-02-04T13:38:18;1.60;;;1.15;;
17631;SDS011;8934;51.194;17.150;2024-02-04T13:41:05;1.80;;;0.80;;
17631;SDS011;8934;51.194;17.150;2024-02-04T13:43:54;1.67;;;0.70;;
17631;SDS011;8934;51.194;17.150;2024-02-04T13:46:41;0.73;;;0.57;;
17631;SDS011;8934;51.194;17.150;2024-02-04T13:49:29;1.25;;;0.80;;
17631;SDS011;8934;51.194;17.150;2024-02-04T13:52:16;2.35;;;0.73;;
17631;SDS011;8934;51.194;17.150;2024-02-04T13:55:05;1.90;;;1.55;;
17631;SDS011;8934;51.194;17.150;2024-02-04T13:57:54;1.80;;;1.17;;
17631;SDS011;8934;51.194;17.150;2024-02-04T14:00:41;1.38;;;0.90;;
17631;SDS011;8934;51.194;17.150;2024-02-04T14:03:28;2.40;;;1.00;;
17631;SDS011;8934;51.194;17.150;2024-02-04T14:06:16;2.83;;;1.00;;
17631;SDS011;8934;51.194;17.150;2024-02-04T14:09:03;2.47;;;1.65;;
17631;SDS011;8934;51.194;17.150;2024-02-04T14:11:52;0.82;;;0.82;;
17631;SDS011;8934;51.194;17.150;2024-02-04T14:14:40;1.00;;;0.90;;
17631;SDS011;8934;51.194;17.150;2024-02-04T14:17:27;2.78;;;1.77;;
17631;SDS011;8934;51.194;17.150;2024-02-04T14:20:15;1.58;;;0.70;;
17631;SDS011;8934;51.194;17.150;2024-02-04T14:23:02;1.70;;;0.90;;
17631;SDS011;8934;51.194;17.150;2024-02-04T14:25:50;2.60;;;0.95;;
17631;SDS011;8934;51.194;17.150;2024-02-04T14:28:39;2.45;;;1.10;;
17631;SDS011;8934;51.194;17.150;2024-02-04T14:31:27;3.70;;;1.50;;
17631;SDS011;8934;51.194;17.150;2024-02-04T14:34:14;1.88;;;1.08;;
17631;SDS011;8934;51.194;17.150;2024-02-04T14:37:02;3.20;;;2.15;;
17631;SDS011;8934;51.194;17.150;2024-02-04T14:39:49;2.10;;;1.52;;
17631;SDS011;8934;51.194;17.150;2024-02-04T14:42:38;1.02;;;0.85;;
17631;SDS011;8934;51.194;17.150;2024-02-04T14:45:29;1.02;;;0.77;;
17631;SDS011;8934;51.194;17.150;2024-02-04T14:48:16;1.90;;;1.20;;
17631;SDS011;8934;51.194;17.150;2024-02-04T14:51:04;1.02;;;0.95;;
17631;SDS011;8934;51.194;17.150;2024-02-04T14:53:52;2.75;;;1.63;;
17631;SDS011;8934;51.194;17.150;2024-02-04T14:56:40;1.42;;;0.80;;
17631;SDS011;8934;51.194;17.150;2024-02-04T14:59:28;0.55;;;0.55;;
17631;SDS011;8934;51.194;17.150;2024-02-04T15:02:16;1.40;;;0.70;;
17631;SDS011;8934;51.194;17.150;2024-02-04T15:05:04;0.70;;;0.65;;
17631;SDS011;8934;51.194;17.150;2024-02-04T15:07:53;1.40;;;0.70;;
17631;SDS011;8934;51.194;17.150;2024-02-04T15:10:40;2.15;;;0.55;;
17631;SDS011;8934;51.194;17.150;2024-02-04T15:13:28;0.95;;;0.47;;
17631;SDS011;8934;51.194;17.150;2024-02-04T15:16:19;1.27;;;0.90;;
17631;SDS011;8934;51.194;17.150;2024-02-04T15:19:08;1.55;;;0.70;;
17631;SDS011;8934;51.194;17.150;2024-02-04T15:21:56;1.02;;;0.73;;
17631;SDS011;8934;51.194;17.150;2024-02-04T15:24:44;0.65;;;0.35;;
17631;SDS011;8934;51.194;17.150;2024-02-04T15:27:32;4.75;;;1.83;;
17631;SDS011;8934;51.194;17.150;2024-02-04T15:30:21;1.33;;;1.10;;
17631;SDS011;8934;51.194;17.150;2024-02-04T15:33:09;0.93;;;0.93;;
17631;SDS011;8934;51.194;17.150;2024-02-04T15:35:58;1.67;;;1.17;;
17631;SDS011;8934;51.194;17.150;2024-02-04T15:38:46;1.65;;;1.15;;
17631;SDS011;8934;51.194;17.150;2024-02-04T15:41:33;1.73;;;0.75;;
17631;SDS011;8934;51.194;17.150;2024-02-04T15:44:20;2.55;;;1.10;;
17631;SDS011;8934;51.194;17.150;2024-02-04T15:47:08;3.33;;;1.00;;
17631;SDS011;8934;51.194;17.150;2024-02-04T15:49:57;1.25;;;0.75;;
17631;SDS011;8934;51.194;17.150;2024-02-04T15:52:47;2.88;;;1.33;;
17631;SDS011;8934;51.194;17.150;2024-02-04T15:55:35;6.05;;;1.80;;
17631;SDS011;8934;51.194;17.150;2024-02-04T15:58:22;2.15;;;1.35;;
17631;SDS011;8934;51.194;17.150;2024-02-04T16:01:15;2.75;;;0.85;;
17631;SDS011;8934;51.194;17.150;2024-02-04T16:04:07;5.35;;;1.70;;
17631;SDS011;8934;51.194;17.150;2024-02-04T16:06:56;1.42;;;1.30;;
17631;SDS011;8934;51.194;17.150;2024-02-04T16:09:45;2.75;;;1.52;;
17631;SDS011;8934;51.194;17.150;2024-02-04T16:12:34;4.13;;;1.58;;
17631;SDS011;8934;51.194;17.150;2024-02-04T16:15:23;2.78;;;1.73;;
17631;SDS011;8934;51.194;17.150;2024-02-04T16:18:11;1.65;;;1.20;;
17631;SDS011;8934;51.194;17.150;2024-02-04T16:21:00;1.13;;;1.02;;
17631;SDS011;8934;51.194;17.150;2024-02-04T16:23:48;3.17;;;1.35;;
17631;SDS011;8934;51.194;17.150;2024-02-04T16:26:37;1.30;;;1.17;;
17631;SDS011;8934;51.194;17.150;2024-02-04T16:29:24;7.93;;;1.70;;
17631;SDS011;8934;51.194;17.150;2024-02-04T16:32:14;3.70;;;1.40;;
17631;SDS011;8934;51.194;17.150;2024-02-04T16:35:01;2.65;;;1.42;;
17631;SDS011;8934;51.194;17.150;2024-02-04T16:37:48;3.03;;;1.27;;
17631;SDS011;8934;51.194;17.150;2024-02-04T16:40:36;1.50;;;1.05;;
17631;SDS011;8934;51.194;17.150;2024-02-04T16:43:26;4.25;;;1.33;;
17631;SDS011;8934;51.194;17.150;2024-02-04T16:46:14;4.05;;;1.05;;
17631;SDS011;8934;51.194;17.150;2024-02-04T16:49:02;1.58;;;0.80;;
17631;SDS011;8934;51.194;17.150;2024-02-04T16:51:51;1.63;;;1.25;;
17631;SDS011;8934;51.194;17.150;2024-02-04T16:54:38;3.42;;;1.48;;